createdAt,value
2018-05-15T00:21:13.018Z,15.60
2018-05-15T00:23:41.836Z,15.50
2018-05-15T00:26:10.660Z,15.50
2018-05-15T00:28:39.441Z,15.40
2018-05-15T00:31:08.248Z,15.40
2018-05-15T00:33:37.889Z,15.30
2018-05-15T00:36:06.789Z,15.30
2018-05-15T00:38:36.354Z,15.30
2018-05-15T00:41:05.179Z,15.30
2018-05-15T00:43:34.794Z,15.30
2018-05-15T00:46:03.668Z,15.30
2018-05-15T00:48:33.215Z,15.20
2018-05-15T00:51:02.016Z,15.20
2018-05-15T00:53:31.450Z,15.20
2018-05-15T00:56:00.282Z,15.20
2018-05-15T00:58:29.083Z,15.20
2018-05-15T01:00:58.653Z,15.10
2018-05-15T01:03:27.459Z,15.10
2018-05-15T01:05:56.253Z,15.10
2018-05-15T01:08:25.058Z,15.10
2018-05-15T01:10:53.880Z,15.10
2018-05-15T01:13:23.053Z,15.10
2018-05-15T01:15:52.623Z,15.10
2018-05-15T01:18:21.419Z,15.10
2018-05-15T01:20:50.251Z,15.10
2018-05-15T01:23:20.070Z,15.10
2018-05-15T01:25:49.666Z,15.10
2018-05-15T01:28:18.482Z,15.10
2018-05-15T01:30:47.626Z,15.10
2018-05-15T01:33:17.236Z,15.10
2018-05-15T01:35:46.068Z,15.10
2018-05-15T01:38:15.514Z,15.10
2018-05-15T01:40:45.264Z,15.20
2018-05-15T01:43:15.506Z,15.10
2018-05-15T01:45:44.339Z,15.20
2018-05-15T01:48:13.242Z,15.20
2018-05-15T01:50:42.345Z,15.20
2018-05-15T01:55:41.259Z,15.10
2018-05-15T01:58:10.080Z,15.10
2018-05-15T02:00:39.671Z,15.00
2018-05-15T02:03:08.501Z,14.90
2018-05-15T02:05:37.289Z,14.90
2018-05-15T02:08:06.151Z,14.90
2018-05-15T02:10:35.760Z,14.80
2018-05-15T02:13:04.611Z,14.80
2018-05-15T02:15:33.427Z,14.80
2018-05-15T02:18:02.274Z,14.70
2018-05-15T02:20:31.827Z,14.70
2018-05-15T02:23:00.864Z,14.70
2018-05-15T02:25:29.729Z,14.60
2018-05-15T02:27:59.333Z,14.60
2018-05-15T02:30:28.893Z,14.60
2018-05-15T02:32:57.671Z,14.60
2018-05-15T02:35:27.255Z,14.60
2018-05-15T02:37:56.065Z,14.60
2018-05-15T02:40:24.988Z,14.60
2018-05-15T02:42:54.960Z,14.70
2018-05-15T02:45:23.743Z,14.70
2018-05-15T02:47:52.558Z,14.70
2018-05-15T02:50:22.188Z,14.60
2018-05-15T02:52:51.760Z,14.60
2018-05-15T02:55:20.556Z,14.60
2018-05-15T02:57:49.359Z,14.60
2018-05-15T03:00:18.188Z,14.50
2018-05-15T03:02:46.967Z,14.50
2018-05-15T03:05:15.825Z,14.50
2018-05-15T03:07:45.451Z,14.40
2018-05-15T03:10:15.043Z,14.40
2018-05-15T03:12:43.833Z,14.40
2018-05-15T03:15:12.655Z,14.40
2018-05-15T03:17:41.461Z,14.40
2018-05-15T03:20:10.250Z,14.30
2018-05-15T03:22:39.051Z,14.30
2018-05-15T03:25:07.872Z,14.30
2018-05-15T03:27:36.656Z,14.20
2018-05-15T03:30:05.575Z,14.20
2018-05-15T03:32:34.687Z,14.20
2018-05-15T03:35:03.747Z,14.20
2018-05-15T03:37:32.551Z,14.20
2018-05-15T03:40:01.445Z,14.20
2018-05-15T03:42:30.996Z,14.20
2018-05-15T03:45:00.576Z,14.20
2018-05-15T03:47:29.397Z,14.10
2018-05-15T03:49:58.974Z,14.90
2018-05-15T03:52:27.784Z,14.10
2018-05-15T03:54:57.353Z,14.20
2018-05-15T03:57:27.004Z,14.20
2018-05-15T03:59:56.046Z,15.20
2018-05-15T04:02:42.590Z,14.20
2018-05-15T04:05:29.226Z,14.20
2018-05-15T04:08:17.843Z,14.20
2018-05-15T04:10:46.729Z,14.20
2018-05-15T04:13:15.526Z,14.20
2018-05-15T04:15:44.323Z,14.20
2018-05-15T04:18:13.648Z,14.20
2018-05-15T04:20:43.240Z,14.20
2018-05-15T04:23:13.186Z,14.20
2018-05-15T04:25:42.048Z,14.20
2018-05-15T04:28:11.632Z,14.30
2018-05-15T04:30:40.420Z,14.30
2018-05-15T04:33:09.266Z,14.30
2018-05-15T04:35:38.090Z,14.30
2018-05-15T04:38:07.653Z,14.40
2018-05-15T04:40:36.459Z,14.40
2018-05-15T04:43:05.685Z,14.50
2018-05-15T04:45:34.518Z,14.40
2018-05-15T04:48:03.352Z,14.40
2018-05-15T04:50:32.186Z,14.40
2018-05-15T04:53:01.947Z,14.40
2018-05-15T04:55:30.744Z,14.30
2018-05-15T04:57:59.555Z,14.30
2018-05-15T05:00:28.466Z,14.30
2018-05-15T05:02:58.774Z,14.30
2018-05-15T05:05:28.391Z,14.30
2018-05-15T05:07:57.952Z,14.30
2018-05-15T05:10:26.780Z,14.30
2018-05-15T05:12:55.568Z,14.30
2018-05-15T05:15:24.370Z,14.30
2018-05-15T05:17:53.182Z,14.40
2018-05-15T05:20:22.077Z,14.30
2018-05-15T05:22:50.879Z,14.40
2018-05-15T05:25:19.684Z,14.40
2018-05-15T05:27:48.522Z,14.50
2018-05-15T05:30:17.360Z,14.50
2018-05-15T05:32:46.252Z,14.60
2018-05-15T05:35:15.161Z,14.60
2018-05-15T05:37:44.724Z,14.70
2018-05-15T05:40:13.672Z,14.70
2018-05-15T05:42:43.129Z,14.70
2018-05-15T05:45:11.939Z,14.70
2018-05-15T05:47:40.758Z,14.80
2018-05-15T05:50:10.363Z,14.80
2018-05-15T05:52:39.927Z,14.80
2018-05-15T05:55:08.863Z,14.80
2018-05-15T05:57:38.436Z,14.90
2018-05-15T06:00:07.220Z,14.90
2018-05-15T06:02:36.024Z,14.90
2018-05-15T06:05:04.824Z,14.90
2018-05-15T06:07:33.644Z,14.90
2018-05-15T06:10:03.214Z,15.00
2018-05-15T06:12:32.026Z,15.00
2018-05-15T06:15:00.824Z,15.00
2018-05-15T06:17:29.634Z,15.10
2018-05-15T06:19:58.523Z,15.10
2018-05-15T06:22:27.296Z,15.10
2018-05-15T06:24:56.214Z,15.10
2018-05-15T06:27:25.841Z,15.10
2018-05-15T06:29:54.600Z,15.10
2018-05-15T06:32:23.554Z,15.20
2018-05-15T06:34:52.332Z,15.20
2018-05-15T06:37:21.900Z,15.30
2018-05-15T06:39:50.816Z,15.30
2018-05-15T06:42:19.636Z,15.40
2018-05-15T06:44:48.517Z,15.50
2018-05-15T06:47:18.772Z,15.60
2018-05-15T06:49:47.634Z,15.60
2018-05-15T06:52:16.420Z,15.70
2018-05-15T06:54:45.251Z,15.80
2018-05-15T06:57:14.054Z,15.90
2018-05-15T06:59:42.990Z,15.90
2018-05-15T07:02:12.574Z,16.00
2018-05-15T07:04:41.386Z,16.00
2018-05-15T07:07:10.994Z,16.10
2018-05-15T07:09:40.546Z,16.10
2018-05-15T07:12:10.218Z,16.10
2018-05-15T07:14:39.018Z,16.20
2018-05-15T07:17:07.916Z,16.20
2018-05-15T07:19:36.928Z,16.20
2018-05-15T07:22:05.726Z,16.30
2018-05-15T07:24:34.626Z,16.30
2018-05-15T07:27:03.432Z,16.30
2018-05-15T07:29:32.304Z,16.40
2018-05-15T07:32:01.864Z,16.50
2018-05-15T07:34:32.333Z,16.50
2018-05-15T07:37:01.886Z,16.60
2018-05-15T07:39:30.701Z,16.50
2018-05-15T07:41:59.608Z,16.60
2018-05-15T07:44:29.203Z,16.70
2018-05-15T07:46:58.001Z,16.60
2018-05-15T07:49:27.577Z,16.70
2018-05-15T07:51:56.388Z,16.70
2018-05-15T07:54:25.201Z,16.80
2018-05-15T07:56:54.006Z,16.90
2018-05-15T07:59:22.830Z,16.90
2018-05-15T08:01:51.650Z,16.90
2018-05-15T08:04:20.531Z,17.00
2018-05-15T08:06:49.376Z,17.10
2018-05-15T08:09:18.161Z,17.10
2018-05-15T08:11:47.110Z,17.10
2018-05-15T08:14:16.036Z,17.20
2018-05-15T08:16:45.635Z,17.20
2018-05-15T08:19:14.443Z,17.20
2018-05-15T08:21:43.330Z,17.30
2018-05-15T08:24:13.001Z,17.40
2018-05-15T08:26:41.830Z,17.40
2018-05-15T08:29:11.424Z,17.40
2018-05-15T08:31:40.992Z,17.50
2018-05-15T08:34:10.591Z,17.50
2018-05-15T08:36:40.142Z,17.50
2018-05-15T08:39:08.951Z,17.50
2018-05-15T08:41:37.909Z,17.50
2018-05-15T08:44:06.723Z,17.60
2018-05-15T08:46:35.530Z,17.60
2018-05-15T08:49:05.113Z,17.60
2018-05-15T08:51:33.944Z,17.60
2018-05-15T08:54:03.490Z,17.60
2018-05-15T08:56:32.285Z,17.60
2018-05-15T08:59:01.101Z,17.70
2018-05-15T09:01:29.905Z,17.80
2018-05-15T09:03:58.713Z,17.90
2018-05-15T09:06:27.511Z,17.90
2018-05-15T09:08:57.105Z,18.00
2018-05-15T09:11:25.880Z,18.00
2018-05-15T09:13:55.464Z,18.20
2018-05-15T09:16:24.297Z,18.20
2018-05-15T09:18:53.848Z,18.30
2018-05-15T09:21:22.777Z,18.30
2018-05-15T09:23:52.340Z,18.50
2018-05-15T09:26:21.165Z,18.50
2018-05-15T09:28:50.738Z,18.70
2018-05-15T09:31:19.562Z,18.70
2018-05-15T09:33:48.354Z,18.80
2018-05-15T09:36:17.166Z,18.90
2018-05-15T09:38:45.971Z,19.10
2018-05-15T09:41:15.526Z,19.40
2018-05-15T09:43:59.887Z,19.40
2018-05-15T09:46:28.693Z,19.50
2018-05-15T09:48:57.529Z,19.50
2018-05-15T09:51:27.088Z,19.20
2018-05-15T09:53:56.555Z,19.20
2018-05-15T09:56:26.153Z,19.30
2018-05-15T09:58:55.764Z,19.40
2018-05-15T10:01:25.358Z,19.40
2018-05-15T10:03:54.172Z,19.40
2018-05-15T10:06:23.072Z,19.40
2018-05-15T10:08:51.909Z,19.60
2018-05-15T10:11:20.713Z,19.70
2018-05-15T10:13:50.279Z,19.70
2018-05-15T10:16:19.119Z,19.70
2018-05-15T10:18:49.598Z,19.40
2018-05-15T10:21:18.413Z,19.40
2018-05-15T10:23:47.232Z,19.20
2018-05-15T10:26:16.009Z,19.30
2018-05-15T10:28:45.047Z,19.30
2018-05-15T10:31:13.952Z,19.50
2018-05-15T10:33:42.772Z,19.60
2018-05-15T10:36:12.336Z,20.00
2018-05-15T10:38:41.262Z,20.00
2018-05-15T10:41:10.954Z,20.30
2018-05-15T10:43:40.592Z,20.40
2018-05-15T10:46:09.442Z,20.40
2018-05-15T10:48:38.272Z,20.50
2018-05-15T10:51:07.828Z,20.80
2018-05-15T10:53:36.674Z,20.80
2018-05-15T10:56:05.486Z,20.80
2018-05-15T10:58:34.289Z,20.60
2018-05-15T11:01:03.874Z,20.60
2018-05-15T11:03:32.755Z,20.60
2018-05-15T11:06:01.559Z,20.60
2018-05-15T11:08:30.406Z,20.60
2018-05-15T11:10:59.969Z,20.60
2018-05-15T11:13:28.749Z,20.60
2018-05-15T11:15:58.459Z,20.40
2018-05-15T11:18:43.849Z,20.20
2018-05-15T11:21:30.474Z,20.20
2018-05-15T11:27:02.208Z,20.00
2018-05-15T11:29:31.030Z,19.90
2018-05-15T11:31:59.840Z,19.90
2018-05-15T11:34:29.420Z,19.80
2018-05-15T11:36:59.209Z,19.80
2018-05-15T11:39:28.163Z,19.70
2018-05-15T11:41:57.042Z,19.60
2018-05-15T11:44:25.813Z,19.70
2018-05-15T11:46:55.393Z,19.80
2018-05-15T11:49:25.279Z,19.80
2018-05-15T11:51:53.826Z,19.90
2018-05-15T11:54:22.590Z,20.20
2018-05-15T11:56:52.139Z,20.20
2018-05-15T11:59:21.723Z,20.20
2018-05-15T12:01:50.612Z,20.20
2018-05-15T12:04:19.375Z,20.00
2018-05-15T12:06:48.193Z,19.90
2018-05-15T12:09:17.012Z,19.60
2018-05-15T12:11:45.837Z,19.40
2018-05-15T12:14:14.641Z,19.00
2018-05-15T12:16:43.434Z,18.70
2018-05-15T12:19:13.006Z,18.20
2018-05-15T12:21:41.823Z,18.20
2018-05-15T12:24:10.654Z,18.10
2018-05-15T12:26:39.458Z,18.00
2018-05-15T12:29:08.251Z,17.80
2018-05-15T12:31:37.096Z,17.80
2018-05-15T12:34:05.920Z,17.60
2018-05-15T12:36:34.722Z,17.50
2018-05-15T12:39:03.545Z,17.50
2018-05-15T12:41:33.223Z,17.70
2018-05-15T12:44:02.722Z,18.00
2018-05-15T12:46:31.518Z,17.90
2018-05-15T12:49:00.402Z,18.20
2018-05-15T12:51:29.999Z,18.90
2018-05-15T12:53:58.830Z,18.90
2018-05-15T12:56:28.377Z,19.60
2018-05-15T12:58:57.280Z,19.60
2018-05-15T13:01:26.055Z,19.70
2018-05-15T13:03:54.910Z,19.70
2018-05-15T13:06:23.711Z,19.60
2018-05-15T13:08:53.421Z,19.50
2018-05-15T13:11:22.223Z,19.50
2018-05-15T13:13:51.042Z,19.50
2018-05-15T13:16:19.867Z,19.50
2018-05-15T13:18:48.736Z,19.60
2018-05-15T13:21:17.569Z,19.60
2018-05-15T13:23:47.132Z,19.80
2018-05-15T13:26:15.916Z,19.80
2018-05-15T13:28:44.969Z,19.80
2018-05-15T13:31:13.862Z,20.00
2018-05-15T13:33:42.648Z,20.10
2018-05-15T13:36:11.505Z,20.20
2018-05-15T13:38:40.333Z,20.40
2018-05-15T13:41:09.165Z,20.60
2018-05-15T13:43:37.979Z,20.70
2018-05-15T13:46:06.769Z,20.60
2018-05-15T13:48:36.332Z,20.70
2018-05-15T13:51:05.304Z,20.70
2018-05-15T13:53:34.096Z,20.40
2018-05-15T13:56:02.928Z,20.30
2018-05-15T13:58:31.724Z,20.40
2018-05-15T14:01:01.342Z,21.00
2018-05-15T14:03:30.123Z,21.00
2018-05-15T14:05:58.982Z,21.20
2018-05-15T14:08:28.525Z,21.10
2018-05-15T14:10:57.368Z,21.00
2018-05-15T14:13:26.622Z,20.70
2018-05-15T14:15:56.200Z,20.10
2018-05-15T14:18:25.006Z,20.10
2018-05-15T14:20:53.809Z,19.90
2018-05-15T14:23:22.614Z,19.90
2018-05-15T14:25:51.426Z,19.80
2018-05-15T14:28:20.238Z,19.80
2018-05-15T14:30:49.842Z,19.90
2018-05-15T14:33:18.663Z,19.90
2018-05-15T14:35:47.462Z,19.80
2018-05-15T14:38:16.404Z,19.70
2018-05-15T14:40:45.215Z,19.60
2018-05-15T14:43:24.863Z,19.30
2018-05-15T14:45:53.729Z,19.20
2018-05-15T14:48:23.333Z,19.00
2018-05-15T14:54:11.802Z,18.80
2018-05-15T14:56:41.376Z,18.80
2018-05-15T14:59:10.201Z,18.80
2018-05-15T15:01:39.781Z,18.60
2018-05-15T15:04:08.603Z,18.60
2018-05-15T15:06:38.207Z,18.50
2018-05-15T15:09:07.058Z,18.50
2018-05-15T15:11:35.861Z,18.40
2018-05-15T15:14:06.315Z,18.10
2018-05-15T15:16:35.901Z,18.10
2018-05-15T15:19:04.727Z,18.10
2018-05-15T15:21:33.555Z,18.10
2018-05-15T15:24:02.347Z,18.10
2018-05-15T15:26:31.164Z,18.00
2018-05-15T15:28:59.975Z,17.90
2018-05-15T15:31:28.775Z,17.80
2018-05-15T15:33:58.360Z,17.80
2018-05-15T15:36:27.169Z,17.60
2018-05-15T15:38:55.976Z,17.50
2018-05-15T15:41:24.796Z,17.50
2018-05-15T15:43:53.847Z,17.60
2018-05-15T15:46:22.405Z,17.70
2018-05-15T15:48:52.038Z,17.90
2018-05-15T15:51:21.649Z,18.00
2018-05-15T15:53:50.457Z,17.90
2018-05-15T15:56:20.005Z,18.40
2018-05-15T15:58:48.809Z,18.40
2018-05-15T16:01:19.107Z,19.00
2018-05-15T16:03:47.911Z,19.00
2018-05-15T16:06:16.749Z,19.30
2018-05-15T16:08:45.585Z,19.60
2018-05-15T16:11:14.393Z,19.90
2018-05-15T16:13:43.967Z,20.50
2018-05-15T16:16:12.758Z,20.50
2018-05-15T16:18:41.596Z,20.80
2018-05-15T16:21:10.447Z,20.60
2018-05-15T16:23:39.250Z,20.20
2018-05-15T16:26:08.093Z,19.80
2018-05-15T16:28:37.720Z,19.50
2018-05-15T16:31:06.584Z,19.50
2018-05-15T16:33:36.141Z,19.10
2018-05-15T16:36:04.956Z,19.00
2018-05-15T16:38:33.753Z,19.00
2018-05-15T16:41:02.559Z,19.00
2018-05-15T16:43:31.988Z,19.20
2018-05-15T16:46:00.764Z,19.30
2018-05-15T16:48:29.619Z,19.20
2018-05-15T16:50:59.218Z,18.60
2018-05-15T16:53:29.562Z,18.20
2018-05-15T16:55:58.373Z,18.20
2018-05-15T16:58:27.208Z,17.90
2018-05-15T17:00:56.840Z,17.80
2018-05-15T17:03:25.620Z,17.70
2018-05-15T17:05:54.425Z,17.70
2018-05-15T17:08:23.980Z,17.40
2018-05-15T17:10:52.790Z,17.30
2018-05-15T17:13:22.376Z,17.10
2018-05-15T17:15:51.211Z,17.00
2018-05-15T17:18:20.017Z,16.90
2018-05-15T17:20:48.866Z,16.70
2018-05-15T17:23:18.441Z,16.60
2018-05-15T17:25:47.234Z,16.50
2018-05-15T17:28:16.041Z,16.40
2018-05-15T17:30:44.833Z,16.30
2018-05-15T17:33:13.846Z,16.10
2018-05-15T17:35:42.688Z,16.00
2018-05-15T17:38:11.535Z,15.90
2018-05-15T17:40:40.329Z,15.90
2018-05-15T17:43:09.149Z,15.80
2018-05-15T17:45:37.952Z,15.70
2018-05-15T17:48:07.555Z,15.60
2018-05-15T17:50:36.363Z,15.60
2018-05-15T17:53:05.332Z,15.50
2018-05-15T17:55:34.058Z,15.40
2018-05-15T17:58:02.858Z,15.40
2018-05-15T18:00:31.678Z,15.40
2018-05-15T18:03:01.142Z,15.40
2018-05-15T18:05:29.945Z,15.40
2018-05-15T18:07:58.763Z,15.40
2018-05-15T18:10:27.575Z,15.40
2018-05-15T18:12:56.408Z,15.30
2018-05-15T18:15:26.009Z,15.30
2018-05-15T18:17:54.775Z,15.30
2018-05-15T18:20:23.579Z,15.20
2018-05-15T18:22:53.156Z,15.30
2018-05-15T18:25:22.753Z,15.30
2018-05-15T18:27:51.669Z,15.30
2018-05-15T18:30:21.276Z,15.10
2018-05-15T18:32:50.857Z,15.00
2018-05-15T18:35:19.641Z,15.00
2018-05-15T18:37:48.465Z,14.90
2018-05-15T18:40:18.037Z,14.70
2018-05-15T18:42:46.862Z,14.70
2018-05-15T18:45:15.707Z,14.70
2018-05-15T18:47:44.531Z,14.70
2018-05-15T18:50:13.339Z,14.60
2018-05-15T18:52:42.151Z,14.60
2018-05-15T18:55:10.962Z,14.60
2018-05-15T18:57:39.787Z,14.50
2018-05-15T19:00:08.579Z,14.40
2018-05-15T19:02:37.504Z,14.20
2018-05-15T19:05:06.307Z,14.10
2018-05-15T19:07:35.645Z,13.90
2018-05-15T19:10:04.464Z,13.80
2018-05-15T19:12:34.134Z,13.80
2018-05-15T19:15:03.038Z,13.70
2018-05-15T19:17:32.016Z,13.80
2018-05-15T19:20:00.844Z,13.70
2018-05-15T19:22:30.452Z,13.70
2018-05-15T19:24:59.302Z,13.70
2018-05-15T19:27:28.085Z,13.70
2018-05-15T19:29:57.063Z,13.70
2018-05-15T19:32:32.362Z,13.70
2018-05-15T19:35:01.202Z,13.60
2018-05-15T19:37:30.048Z,13.60
2018-05-15T19:39:59.998Z,13.60
2018-05-15T19:42:28.819Z,13.60
2018-05-15T19:44:57.714Z,13.60
2018-05-15T19:47:27.278Z,13.60
2018-05-15T19:49:57.653Z,13.60
2018-05-15T19:52:26.440Z,13.60
2018-05-15T19:54:56.031Z,13.60
2018-05-15T19:57:24.875Z,13.50
2018-05-15T19:59:53.710Z,13.50
2018-05-15T20:02:22.552Z,13.50
2018-05-15T20:04:52.136Z,13.50
2018-05-15T20:07:20.968Z,13.40
2018-05-15T20:09:50.525Z,13.50
2018-05-15T20:12:19.460Z,13.50
2018-05-15T20:14:48.273Z,13.60
2018-05-15T20:17:17.073Z,13.60
2018-05-15T20:19:46.015Z,13.60
2018-05-15T20:22:14.811Z,13.60
2018-05-15T20:24:43.627Z,13.70
2018-05-15T20:27:12.460Z,13.70
2018-05-15T20:29:41.266Z,13.60
2018-05-15T20:32:10.810Z,13.60
2018-05-15T20:34:40.356Z,13.60
2018-05-15T20:37:09.171Z,13.60
2018-05-15T20:39:38.756Z,13.60
2018-05-15T20:42:07.587Z,13.60
2018-05-15T20:44:36.372Z,13.60
2018-05-15T20:47:05.197Z,13.60
2018-05-15T20:49:34.020Z,13.60
2018-05-15T20:52:02.898Z,13.50
2018-05-15T20:54:31.675Z,13.50
2018-05-15T20:57:00.478Z,13.50
2018-05-15T20:59:30.067Z,13.50
2018-05-15T21:01:58.899Z,13.40
2018-05-15T21:04:27.735Z,13.40
2018-05-15T21:06:56.652Z,13.40
2018-05-15T21:09:26.257Z,13.50
2018-05-15T21:11:55.811Z,13.40
2018-05-15T21:14:24.732Z,13.40
2018-05-15T21:16:54.343Z,13.40
2018-05-15T21:19:23.894Z,13.40
2018-05-15T21:21:53.569Z,13.30
2018-05-15T21:24:22.293Z,13.30
2018-05-15T21:26:51.855Z,13.30
2018-05-15T21:29:20.682Z,13.20
2018-05-15T21:31:50.257Z,13.20
2018-05-15T21:34:19.857Z,13.20
2018-05-15T21:36:49.476Z,13.20
2018-05-15T21:39:18.258Z,13.10
2018-05-15T21:41:47.831Z,13.10
2018-05-15T21:44:17.531Z,13.10
2018-05-15T21:46:47.148Z,13.10
2018-05-15T21:49:15.994Z,13.10
2018-05-15T21:51:44.799Z,13.20
2018-05-15T21:54:13.612Z,13.10
2018-05-15T21:56:42.538Z,13.20
2018-05-15T21:59:12.108Z,13.10
2018-05-15T22:01:40.916Z,13.10
2018-05-15T22:04:09.749Z,13.20
2018-05-15T22:06:39.337Z,13.20
2018-05-15T22:09:08.905Z,13.20
2018-05-15T22:11:55.660Z,13.20
2018-05-15T22:14:42.530Z,13.20
2018-05-15T22:17:30.089Z,13.20
2018-05-15T22:20:16.866Z,13.20
2018-05-15T22:22:45.665Z,13.20
2018-05-15T22:25:14.479Z,13.20
2018-05-15T22:27:43.333Z,13.20
2018-05-15T22:30:12.947Z,13.10
2018-05-15T22:32:42.586Z,13.20
2018-05-15T22:35:11.378Z,13.20
2018-05-15T22:37:40.253Z,13.20
2018-05-15T22:40:09.806Z,13.20
2018-05-15T22:42:38.748Z,13.20
2018-05-15T22:45:08.320Z,13.20
2018-05-15T22:47:37.157Z,13.20
2018-05-15T22:50:05.961Z,13.20
2018-05-15T22:52:34.754Z,13.20
2018-05-15T22:55:04.366Z,13.30
2018-05-15T22:57:33.972Z,13.30
2018-05-15T23:00:03.542Z,13.30
2018-05-15T23:02:32.367Z,13.20
2018-05-15T23:05:01.922Z,13.20
2018-05-15T23:07:30.854Z,13.20
2018-05-15T23:10:00.428Z,13.30
2018-05-15T23:12:29.260Z,13.20
2018-05-15T23:14:58.954Z,13.20
2018-05-15T23:17:28.564Z,13.20
2018-05-15T23:19:58.660Z,13.20
2018-05-15T23:22:42.114Z,13.20
2018-05-15T23:25:10.913Z,13.20
2018-05-15T23:27:40.484Z,13.20
2018-05-15T23:30:09.406Z,13.20
2018-05-15T23:32:38.307Z,13.10
2018-05-15T23:35:07.134Z,13.10
2018-05-15T23:37:35.940Z,13.20
2018-05-15T23:40:05.508Z,13.20
2018-05-15T23:42:34.326Z,13.20
2018-05-15T23:45:03.905Z,13.20
2018-05-15T23:47:32.834Z,13.20
2018-05-15T23:50:07.509Z,13.20
2018-05-15T23:52:36.335Z,13.20
2018-05-15T23:55:05.873Z,13.10
2018-05-15T23:57:34.657Z,13.20
